Falls International Airport International Falls US
ICAO: KINL
IATA: INL
Category: Medium
Scheduled Services: Yes

Elevation: 1185 ft
TransAlt. 18000 ft.

Airport Communications:
ASOS:120
MINNEAPOLIS CNTR:120.9
PRINCETON RDO:123.6
CTAF/UNICOM:122.8

KINL Zoom In..

If you have problems with the map follow the link
https://www.worldairports.se/pages/airport.php?
ICAO=KINL

Runways:

(A) RW 04 length 2999 ft width 75 ft
---- / hdg 39

(B) RW 13 length 7400 ft width 150 ft
ILS 109.10 / hdg 133

(C) RW 22 length 2999 ft width 75 ft
---- / hdg 219

(D) RW 31 length 7400 ft width 150 ft
ILS 111.95 / hdg 313

Location; KINL
Day. 19 / Time. 15.19 Zulu
* Altimeter: 30.39
* Temperature: -12° c. -10.4°f.
* Wind from: 280° Speed 05 kn.
Dewpoint: -14° c.
Visibility: 1 m.
Clouds: Overcast 1500 ft.
Conditions: Light Snow.Conditions: Mist.

KINL 191519Z AUTO 28005KT 1 3/4SM -SN BR OVC015 M12/M14 A3039 RMK AO2 SNB13 P0000 T11221144 $


Wind From 280°
Speed 05 kn.

 
 
jpsmedia worldairports.se 2020   terms of use